Latest Weather Observations for Shay Gap

IDW60801

Issued at 4:32 am WST Monday 27 April 2015 (issued every 30 minutes, with the page automatically refreshed every 10 minutes)

About weather observations | Map of weather stations | Latest weather observations for WA | Other Formats
Station Details ID: 504045 Name: SHAY GAP Lat: -20.43 Lon: 120.13 Height: 173.83 m
Data from the previous 72 hours. | See also: Recent months for locations in Western Australia
Date/Time
WST
Temp
°C
App
Temp
°C
Dew
Point
Rel
Hum
%
Delta-T
°C
Wind Press
QNH
hPa
Press
MSL
hPa
Rain
since 9 am
mm
Dir
 
Spd
km/h
Gust
km/h
Spd
kts
Gust
kts
27/04:30am 23.0 17.1 4.0 29 9.4 SE 24 32 13 17 1016.0 1014.9 0.0
27/04:00am 22.7 17.0 4.7 31 9.0 SE 24 32 13 17 1016.0 1014.9 0.0
27/03:30am 22.8 17.4 4.3 30 9.2 SE 22 28 12 15 1016.1 1015.0 0.0
27/03:00am 22.9 17.2 4.9 31 9.0 SE 24 30 13 16 1016.5 1015.4 0.0
27/02:30am 22.9 18.0 5.3 32 8.9 SE 20 24 11 13 1016.5 1015.4 0.0
27/02:00am 22.8 18.2 5.7 33 8.7 SE 19 22 10 12 1016.5 1015.4 0.0
27/01:30am 22.9 18.3 5.8 33 8.7 SE 19 22 10 12 1016.6 1015.5 0.0
27/01:00am 23.8 18.9 5.2 30 9.4 SE 20 26 11 14 1016.9 1015.7 0.0
27/12:30am 24.2 19.3 5.1 29 9.7 SE 20 24 11 13 1017.1 1015.9 0.0
27/12:00am 24.5 19.2 4.8 28 9.9 SE 22 28 12 15 1017.2 1016.0 0.0
 
Date/Time
WST
Temp
°C
App
Temp
°C
Dew
Point
Rel
Hum
%
Delta-T
°C
Wind Press
QNH
hPa
Press
MSL
hPa
Rain
since 9 am
mm
Dir
 
Spd
km/h
Gust
km/h
Spd
kts
Gust
kts
26/11:30pm 24.9 19.1 4.6 27 10.2 SE 24 30 13 16 1017.1 1015.9 0.0
26/11:00pm 25.3 19.1 4.4 26 10.5 SE 26 33 14 18 1017.1 1015.9 0.0
26/10:30pm 25.6 19.4 4.1 25 10.8 SE 26 35 14 19 1017.2 1016.0 0.0
26/10:00pm 25.7 19.9 4.2 25 10.8 SE 24 32 13 17 1017.5 1016.3 0.0
26/09:30pm 25.9 20.5 4.4 25 10.9 SE 22 30 12 16 1017.6 1016.4 0.0
26/09:00pm 26.2 20.8 4.6 25 11.0 SE 22 30 12 16 1017.8 1016.6 0.0
26/08:30pm 26.1 21.8 5.1 26 10.8 SE 17 24 9 13 1017.8 1016.6 0.0
26/08:00pm 26.5 22.1 4.9 25 11.1 SE 17 22 9 12 1017.6 1016.4 0.0
26/07:30pm 26.8 22.0 4.6 24 11.3 SE 19 24 10 13 1017.2 1016.0 0.0
26/07:00pm 27.3 22.4 5.0 24 11.5 SE 20 28 11 15 1016.9 1015.7 0.0
26/06:30pm 26.5 23.5 7.5 30 10.2 SE 13 15 7 8 1016.6 1015.5 0.0
26/06:00pm 27.1 23.9 7.0 28 10.7 SE 13 15 7 8 1016.3 1015.2 0.0
26/05:30pm 28.2 23.9 5.1 23 12.0 SE 17 20 9 11 1016.0 1014.9 0.0
26/05:00pm 29.1 24.1 4.6 21 12.7 ESE 20 28 11 15 1015.7 1014.6 0.0
26/04:30pm 29.8 24.0 4.4 20 13.2 ESE 24 30 13 16 1015.3 1014.2 0.0
26/04:00pm 30.2 23.7 4.8 20 13.3 SE 28 33 15 18 1015.1 1014.0 0.0
26/03:30pm 30.3 24.2 4.9 20 13.3 ESE 26 33 14 18 1015.0 1013.9 0.0
26/03:00pm 29.9 24.3 5.2 21 13.0 ESE 24 32 13 17 1014.9 1013.8 0.0
26/02:30pm 30.0 24.6 4.6 20 13.2 ESE 22 30 12 16 1014.8 1013.7 0.0
26/02:00pm 30.3 24.8 4.1 19 13.5 SE 22 32 12 17 1014.9 1013.8 0.0
26/01:30pm 30.2 23.8 3.3 18 13.7 ESE 26 37 14 20 1015.1 1014.0 0.0
26/01:00pm 30.5 24.1 5.0 20 13.4 ESE 28 35 15 19 1015.3 1014.2 0.0
26/12:30pm 29.7 23.0 3.6 19 13.3 ESE 28 41 15 22 1015.6 1014.5 0.0
26/12:00pm 28.4 21.3 3.3 20 12.6 ESE 30 39 16 21 1016.2 1015.1 0.0
26/11:30am 28.6 21.1 4.2 21 12.5 ESE 33 43 18 23 1016.4 1015.3 0.0
26/11:00am 27.2 19.7 3.7 22 11.8 SE 32 43 17 23 1017.1 1015.9 0.0
26/10:30am 27.1 19.7 4.2 23 11.6 ESE 32 41 17 22 1017.3 1016.1 0.0
26/10:00am 25.2 17.4 2.6 23 11.0 ESE 33 43 18 23 1017.5 1016.3 0.0
26/09:41am 24.7 16.6 3.4 25 10.5 ESE 35 54 19 29 1017.8 1016.6 0.0
26/09:30am 24.7 16.9 2.8 24 10.7 ESE 33 46 18 25 1017.9 1016.7 0.0
26/09:00am 23.1 15.0 3.1 27 9.7 ESE 35 44 19 24 1018.0 1016.8 0.0
26/08:30am 22.1 14.3 2.8 28 9.2 ESE 33 44 18 24 1017.8 1016.6 0.0
26/08:00am 21.5 13.9 2.7 29 8.9 ESE 32 43 17 23 1017.1 1015.9 0.0
26/07:30am 21.3 13.7 3.0 30 8.7 SE 32 41 17 22 1017.2 1016.0 0.0
26/07:00am 21.1 13.3 2.9 30 8.7 ESE 33 46 18 25 1016.9 1015.7 0.0
26/06:30am 21.2 13.0 2.5 29 8.8 ESE 35 46 19 25 1016.6 1015.5 0.0
26/06:00am 21.4 12.8 2.6 29 8.9 ESE 37 50 20 27 1016.1 1015.0 0.0
26/05:30am 21.7 12.4 2.9 29 9.0 SE 41 57 22 31 1016.0 1014.9 0.0
26/05:21am 21.8 12.5 3.0 29 9.0 ESE 41 59 22 32 1015.8 1014.7 0.0
26/05:00am 22.2 12.5 2.8 28 9.3 ESE 43 57 23 31 1015.6 1014.5 0.0
26/04:30am 22.5 13.3 3.6 29 9.2 ESE 41 57 22 31 1015.4 1014.3 0.0
26/04:00am 22.6 14.3 4.2 30 9.1 SE 37 50 20 27 1015.6 1014.5 0.0
26/03:30am 22.6 16.2 5.1 32 8.8 SE 28 37 15 20 1015.9 1014.8 0.0
26/03:00am 22.9 15.8 5.3 32 8.9 SE 32 41 17 22 1015.6 1014.5 0.0
26/02:30am 22.8 16.6 6.1 34 8.5 SE 28 39 15 21 1015.7 1014.6 0.0
26/02:00am 23.1 17.0 6.4 34 8.6 SE 28 39 15 21 1015.6 1014.5 0.0
26/01:30am 23.1 17.5 7.2 36 8.3 SE 26 35 14 19 1015.8 1014.7 0.0
26/01:00am 23.3 17.8 7.4 36 8.4 SE 26 35 14 19 1015.9 1014.8 0.0
26/12:30am 23.8 18.3 7.4 35 8.6 SE 26 35 14 19 1016.0 1014.9 0.0
26/12:00am 24.0 18.9 7.6 35 8.7 SE 24 32 13 17 1016.3 1015.2 0.0
 
Date/Time
WST
Temp
°C
App
Temp
°C
Dew
Point
Rel
Hum
%
Delta-T
°C
Wind Press
QNH
hPa
Press
MSL
hPa
Rain
since 9 am
mm
Dir
 
Spd
km/h
Gust
km/h
Spd
kts
Gust
kts
25/11:30pm 24.3 19.3 7.9 35 8.8 SE 24 30 13 16 1016.3 1015.2 0.0
25/11:00pm 24.6 19.5 7.7 34 9.0 SE 24 30 13 16 1016.4 1015.3 0.0
25/10:30pm 24.6 19.5 7.7 34 9.0 SE 24 32 13 17 1016.4 1015.3 0.0
25/10:00pm 24.5 20.1 7.6 34 9.0 SE 20 30 11 16 1016.6 1015.5 0.0
25/09:30pm 24.9 20.5 7.5 33 9.2 SE 20 28 11 15 1016.9 1015.7 0.0
25/09:00pm 25.1 20.8 7.7 33 9.3 SE 20 26 11 14 1016.8 1015.6 0.0
25/08:30pm 25.2 20.5 7.8 33 9.3 SE 22 28 12 15 1016.6 1015.5 0.0
25/08:00pm 24.8 20.8 8.3 35 8.9 SSE 19 22 10 12 1016.6 1015.5 0.0
25/07:30pm 25.0 21.1 8.5 35 8.9 SSE 19 24 10 13 1016.4 1015.3 0.0
25/07:00pm 24.8 21.8 9.1 37 8.6 SSE 15 20 8 11 1016.1 1015.0 0.0
25/06:30pm 24.8 21.8 9.1 37 8.6 SSE 15 20 8 11 1015.8 1014.7 0.0
25/06:00pm 24.9 21.9 9.2 37 8.6 SSE 15 20 8 11 1015.5 1014.4 0.0
25/05:30pm 25.3 21.9 9.2 36 8.8 SSE 17 24 9 13 1015.1 1014.0 0.0
25/05:00pm 25.6 21.6 9.0 35 9.1 SSE 20 26 11 14 1014.8 1013.7 0.0
25/04:30pm 25.5 21.1 8.9 35 9.1 SSE 22 28 12 15 1014.6 1013.5 0.0
25/04:00pm 25.7 20.9 8.7 34 9.3 SSE 24 32 13 17 1014.5 1013.4 0.0
25/03:30pm 25.9 21.2 9.3 35 9.2 SSE 24 32 13 17 1014.4 1013.3 0.0
25/03:00pm 25.5 19.8 8.5 34 9.2 SE 28 35 15 19 1014.3 1013.2 0.0
25/02:30pm 25.1 19.5 8.6 35 9.0 SE 28 35 15 19 1014.4 1013.3 0.0
25/02:00pm 25.0 19.7 8.5 35 8.9 SE 26 33 14 18 1014.6 1013.5 0.0
25/01:30pm 24.7 19.0 8.2 35 8.9 SE 28 35 15 19 1014.8 1013.7 0.0
25/01:00pm 24.3 18.7 8.7 37 8.4 SE 28 35 15 19 1015.1 1014.0 0.0
25/12:30pm 23.6 17.8 8.1 37 8.3 ESE 28 39 15 21 1015.0 1013.9 0.0
25/12:00pm 23.2 16.7 8.1 38 8.0 SE 32 43 17 23 1014.9 1013.8 0.0
25/11:30am 22.9 16.4 8.2 39 7.8 SE 32 41 17 22 1015.5 1014.4 0.0
25/11:00am 22.5 16.1 8.6 41 7.4 SE 32 46 17 25 1016.1 1015.0 0.0
25/10:30am 22.3 14.4 7.7 39 7.7 SE 39 52 21 28 1016.2 1015.1 0.0
25/10:00am 21.9 13.2 7.7 40 7.4 SE 43 54 23 29 1016.4 1015.3 0.0
25/09:30am 21.3 13.9 8.2 43 6.9 SE 37 46 20 25 1016.9 1015.7 0.0
25/09:00am 21.0 14.0 8.3 44 6.7 SE 35 50 19 27 1017.0 1015.8 0.0
25/08:30am 21.1 12.9 8.4 44 6.7 SE 41 54 22 29 1016.5 1015.4 0.0
25/08:00am 20.9 12.6 7.9 43 6.8 SE 41 52 22 28 1016.0 1014.9 0.0
25/07:30am 20.8 12.9 7.8 43 6.8 SE 39 56 21 30 1015.7 1014.6 0.0
25/07:13am 20.9 12.6 7.9 43 6.8 SE 41 59 22 32 1015.6 1014.5 0.0
25/07:00am 20.9 12.2 7.5 42 7.0 SE 43 56 23 30 1015.3 1014.2 0.0
25/06:30am 21.1 13.1 7.3 41 7.1 SE 39 54 21 29 1014.6 1013.5 0.0
25/06:00am 21.2 12.4 7.4 41 7.2 SE 43 56 23 30 1014.3 1013.2 0.0
25/05:30am 21.3 13.2 7.2 40 7.3 ESE 39 56 21 30 1014.3 1013.2 0.0
25/05:00am 21.3 14.1 7.5 41 7.2 ESE 35 46 19 25 1014.2 1013.1 0.0
25/04:30am 21.5 14.7 7.7 41 7.2 SE 33 46 18 25 1014.3 1013.2 0.0
25/04:00am 21.3 15.4 9.2 46 6.5 SE 30 39 16 21 1014.1 1012.9 0.0
25/03:30am 21.4 16.5 9.9 48 6.3 SE 26 35 14 19 1014.1 1012.9 0.0
25/03:00am 21.9 16.7 10.4 48 6.3 SE 28 35 15 19 1014.1 1012.9 0.0
25/02:30am 22.1 17.9 11.2 50 6.1 SE 24 30 13 16 1014.3 1013.2 0.0
25/02:00am 22.7 19.0 11.4 49 6.4 SE 22 30 12 16 1014.4 1013.3 0.0
25/01:30am 23.0 19.6 11.1 47 6.7 SE 20 26 11 14 1014.5 1013.4 0.0
25/01:00am 23.3 19.6 11.4 47 6.7 SE 22 28 12 15 1014.6 1013.5 0.0
25/12:30am 23.2 20.5 11.6 48 6.6 ESE 17 19 9 10 1014.8 1013.7 0.0
25/12:00am 23.6 20.8 11.3 46 6.9 ESE 17 24 9 13 1014.8 1013.7 0.0
 
Date/Time
WST
Temp
°C
App
Temp
°C
Dew
Point
Rel
Hum
%
Delta-T
°C
Wind Press
QNH
hPa
Press
MSL
hPa
Rain
since 9 am
mm
Dir
 
Spd
km/h
Gust
km/h
Spd
kts
Gust
kts
24/11:30pm 23.5 21.0 11.2 46 6.9 ESE 15 20 8 11 1014.9 1013.8 0.0
24/11:00pm 23.5 21.5 11.5 47 6.8 ESE 13 15 7 8 1015.0 1013.9 0.0
24/10:30pm 23.5 20.7 11.2 46 6.9 SE 17 19 9 10 1014.9 1013.8 0.0
24/10:00pm 24.0 20.4 10.7 43 7.4 SE 20 26 11 14 1014.8 1013.7 0.0
24/09:30pm 24.6 21.1 10.8 42 7.8 SE 20 26 11 14 1015.0 1013.9 0.0
24/09:00pm 24.6 21.1 10.8 42 7.8 SE 20 30 11 16 1014.9 1013.8 0.0
24/08:30pm 24.6 20.6 10.5 41 7.9 SE 22 28 12 15 1014.9 1013.8 0.0
24/08:00pm 25.0 20.3 10.8 41 8.0 SE 26 32 14 17 1014.5 1013.4 0.0
24/07:30pm 25.3 20.2 10.7 40 8.2 SE 28 33 15 18 1014.5 1013.4 0.0
24/07:00pm 25.6 20.6 11.0 40 8.3 SE 28 39 15 21 1014.4 1013.3 0.0
24/06:30pm 25.6 21.1 11.4 41 8.1 SE 26 33 14 18 1014.0 1012.8 0.0
24/06:00pm 26.0 21.2 11.7 41 8.2 SE 28 35 15 19 1013.8 1012.6 0.0
24/05:30pm 26.2 21.4 11.5 40 8.4 SE 28 37 15 20 1013.7 1012.5 0.0
24/05:00pm 26.4 21.0 10.9 38 8.8 SE 30 39 16 21 1013.4 1012.2 0.0
24/04:30pm 26.6 20.7 11.1 38 8.8 SE 33 41 18 22 1012.9 1011.7 0.0
24/04:00pm 26.7 20.8 11.2 38 8.9 SE 33 44 18 24 1012.9 1011.7 0.0
24/03:30pm 27.6 21.6 12.0 38 9.1 SE 35 46 19 25 1012.8 1011.6 0.0
24/03:00pm 27.8 22.3 12.6 39 8.9 SE 33 43 18 23 1012.8 1011.6 0.0
24/02:30pm 27.7 22.1 13.3 41 8.6 SE 35 46 19 25 1012.6 1011.4 0.0
24/02:00pm 27.7 22.3 14.0 43 8.2 SE 35 46 19 25 1012.7 1011.5 0.0
24/01:35pm 28.1 23.2 14.3 42 8.3 SE 33 52 18 28 1012.8 1011.6 0.0
24/01:30pm 27.7 22.3 14.0 43 8.2 SE 35 44 19 24 1013.0 1011.8 0.0
24/01:00pm 27.2 21.9 14.2 44 7.8 SE 35 46 19 25 1013.0 1011.8 0.0
24/12:30pm 26.8 21.1 14.2 46 7.6 ESE 37 48 20 26 1013.3 1012.1 0.0
24/12:00pm 26.7 21.5 14.5 47 7.4 ESE 35 48 19 26 1013.6 1012.4 0.0
24/11:30am 25.3 19.4 13.5 48 7.0 ESE 37 46 20 25 1014.0 1012.8 0.0
24/11:00am 25.0 17.9 13.5 48 6.8 ESE 43 54 23 29 1014.3 1013.2 0.0
24/10:30am 24.4 17.3 13.3 50 6.5 ESE 43 54 23 29 1014.6 1013.5 0.0
24/10:00am 23.8 17.0 13.1 51 6.2 SE 41 50 22 27 1014.5 1013.4 0.0
24/09:30am 22.2 15.2 12.5 54 5.6 SE 41 57 22 31 1014.7 1013.6 0.0
24/09:16am 22.5 16.7 12.7 54 5.6 SE 35 54 19 29 1014.7 1013.6 0.0
24/09:00am 21.7 14.3 12.5 56 5.3 SE 43 56 23 30 1014.7 1013.6 0.0
24/08:30am 21.2 14.1 12.3 57 5.1 SE 41 56 22 30 1014.6 1013.5 0.0
24/08:00am 20.6 14.0 12.6 60 4.5 SE 39 50 21 27 1014.6 1013.5 0.0
24/07:30am 20.1 13.9 12.8 63 4.2 SE 37 50 20 27 1014.6 1013.5 0.0
24/07:00am 19.9 13.7 12.7 63 4.1 SE 37 52 20 28 1014.4 1013.3 0.0
24/06:30am 19.9 13.6 12.4 62 4.2 SE 37 57 20 31 1014.0 1012.8 0.0
24/06:28am 20.0 14.1 12.5 62 4.2 SE 35 54 19 29 1013.9 1012.7 0.0
24/06:00am 20.1 14.3 12.6 62 4.3 SE 35 46 19 25 1013.8 1012.6 0.0
24/05:30am 20.2 14.0 12.7 62 4.3 SE 37 46 20 25 1013.5 1012.3 0.0
24/05:00am 20.2 14.5 12.9 63 4.2 SE 35 48 19 26 1013.2 1012.0 0.0

Other Formats:

Comma delimited format used in spreadsheet applications
http://www.bom.gov.au/fwo/IDW60801/IDW60801.99311.axf

JavaScript Object Notation format (JSON) in row-major order
http://www.bom.gov.au/fwo/IDW60801/IDW60801.99311.json